Time;durP1;ratioP1;P1;durP2;ratioP2;P2;SDS_P1;SDS_P2;PMS_P1;PMS_P2;Temp;Humidity;BMP_temperature;BMP_pressure;BME280_temperature;BME280_humidity;BME280_pressure;Samples;Min_cycle;Max_cycle;Signal;HPM_P1;HPM_P2
2022/02/13 00:01:02;;;;;;;;;;;3.80;89.20;;;;;;6283400;22;19903;-88
2022/02/13 00:03:34;;;;;;;;;;;3.80;89.30;;;;;;6283893;22;19917;-88
2022/02/13 00:05:59;;;;;;;;;;;3.80;89.30;;;;;;6284377;22;19910;-89
2022/02/13 00:08:27;;;;;;;;;;;3.80;89.50;;;;;;6284441;22;19903;-89
2022/02/13 00:10:53;;;;;;;;;;;3.80;89.60;;;;;;6285444;22;19982;-88
2022/02/13 00:13:18;;;;;;;;;;;3.70;89.60;;;;;;6285465;22;19903;-88
2022/02/13 00:15:44;;;;;;;;;;;3.70;89.70;;;;;;6284884;22;20009;-88
2022/02/13 00:18:10;;;;;;;;;;;3.70;89.80;;;;;;6285731;22;19947;-88
2022/02/13 00:20:36;;;;;;;;;;;3.70;89.80;;;;;;6286304;22;20270;-89
2022/02/13 00:23:11;;;;;;;;;;;3.70;89.80;;;;;;6299862;22;19927;-88
2022/02/13 00:25:37;;;;;;;;;;;3.60;89.80;;;;;;6311795;22;19915;-86
2022/02/13 00:28:08;;;;;;;;;;;3.60;90.00;;;;;;6311510;22;19934;-86
2022/02/13 00:30:42;;;;;;;;;;;3.60;90.00;;;;;;6311082;22;19907;-87
2022/02/13 00:33:10;;;;;;;;;;;3.50;90.00;;;;;;6273176;22;19930;-87
2022/02/13 00:35:35;;;;;;;;;;;3.50;90.10;;;;;;6285077;22;19910;-88
2022/02/13 00:38:01;;;;;;;;;;;3.50;90.10;;;;;;6285228;22;19907;-88
2022/02/13 00:40:29;;;;;;;;;;;3.50;90.10;;;;;;6259323;22;19986;-88
2022/02/13 00:42:57;;;;;;;;;;;3.50;90.20;;;;;;6285429;22;19923;-89
2022/02/13 00:45:23;;;;;;;;;;;3.40;90.20;;;;;;6259887;22;19989;-88
2022/02/13 00:47:52;;;;;;;;;;;3.40;90.20;;;;;;6284388;22;19921;-89
2022/02/13 00:50:17;;;;;;;;;;;3.40;90.30;;;;;;6285323;22;19942;-88
2022/02/13 00:52:43;;;;;;;;;;;3.40;90.30;;;;;;6285207;22;19903;-88
2022/02/13 00:55:16;;;;;;;;;;;3.30;90.20;;;;;;6285202;22;19903;-87
2022/02/13 00:57:42;;;;;;;;;;;3.30;90.30;;;;;;6259381;22;19918;-89
2022/02/13 01:00:08;;;;;;;;;;;3.30;90.40;;;;;;6284922;22;19903;-89
2022/02/13 01:02:36;;;;;;;;;;;3.30;90.40;;;;;;6284761;22;19914;-87
2022/02/13 01:05:09;;;;;;;;;;;3.30;90.40;;;;;;6259128;22;19938;-87
2022/02/13 01:07:35;;;;;;;;;;;3.30;90.50;;;;;;6260225;22;19914;-88
2022/02/13 01:10:01;;;;;;;;;;;3.20;90.50;;;;;;6284118;22;19903;-88
2022/02/13 01:12:26;;;;;;;;;;;3.20;90.50;;;;;;6284747;22;19903;-89
2022/02/13 01:14:55;;;;;;;;;;;3.20;90.60;;;;;;6284945;22;19907;-88
2022/02/13 01:18:03;;;;;;;;;;;3.10;90.60;;;;;;6284969;22;19903;-87
2022/02/13 01:20:27;;;;;;;;;;;3.20;90.70;;;;;;6308235;22;19907;-88
2022/02/13 01:22:53;;;;;;;;;;;3.20;90.70;;;;;;6284624;22;19911;-89
2022/02/13 01:25:18;;;;;;;;;;;3.20;90.70;;;;;;6284049;22;19909;-87
2022/02/13 01:27:44;;;;;;;;;;;3.10;90.70;;;;;;6284487;22;19903;-89
2022/02/13 01:30:13;;;;;;;;;;;3.10;90.80;;;;;;6284580;22;19910;-88
2022/02/13 01:32:42;;;;;;;;;;;3.10;90.80;;;;;;6260459;22;20225;-87
2022/02/13 01:35:10;;;;;;;;;;;3.10;90.90;;;;;;6284958;22;19987;-90
2022/02/13 01:37:35;;;;;;;;;;;3.00;90.90;;;;;;6311995;22;19903;-89
2022/02/13 01:40:01;;;;;;;;;;;3.00;90.90;;;;;;6285235;22;19948;-89
2022/02/13 01:42:44;;;;;;;;;;;3.00;91.00;;;;;;6285213;22;19926;-87
2022/02/13 01:45:10;;;;;;;;;;;3.00;91.10;;;;;;6307935;22;19982;-88
2022/02/13 01:47:38;;;;;;;;;;;3.00;91.20;;;;;;6310865;22;19942;-88
2022/02/13 01:50:12;;;;;;;;;;;2.90;91.20;;;;;;6285879;22;19913;-89
2022/02/13 01:52:42;;;;;;;;;;;2.90;91.20;;;;;;6310939;22;19898;-88
2022/02/13 01:55:10;;;;;;;;;;;2.90;91.20;;;;;;6310015;22;19907;-88
2022/02/13 01:57:38;;;;;;;;;;;2.90;91.30;;;;;;6307104;22;19933;-88
2022/02/13 02:00:14;;;;;;;;;;;2.90;91.30;;;;;;6286466;22;20206;-89
2022/02/13 02:02:39;;;;;;;;;;;2.90;91.30;;;;;;6286264;22;19911;-88
2022/02/13 02:05:05;;;;;;;;;;;2.90;91.30;;;;;;6286019;22;19910;-88
2022/02/13 02:07:31;;;;;;;;;;;2.90;91.30;;;;;;6285989;22;19903;-88
2022/02/13 02:09:59;;;;;;;;;;;2.90;91.30;;;;;;6288995;22;19934;-89
2022/02/13 02:12:28;;;;;;;;;;;2.90;91.40;;;;;;6306257;22;19891;-88
2022/02/13 02:14:53;;;;;;;;;;;2.90;91.40;;;;;;6309549;22;19923;-87
2022/02/13 02:17:22;;;;;;;;;;;2.90;91.40;;;;;;6308156;22;19910;-87
2022/02/13 02:19:49;;;;;;;;;;;2.90;91.50;;;;;;6271057;22;19907;-87
2022/02/13 02:22:16;;;;;;;;;;;2.90;91.50;;;;;;6286148;22;19946;-88
2022/02/13 02:24:41;;;;;;;;;;;2.90;91.50;;;;;;6284885;22;19914;-88
2022/02/13 02:27:10;;;;;;;;;;;2.90;91.60;;;;;;6284449;22;20236;-88
2022/02/13 02:29:36;;;;;;;;;;;2.90;91.60;;;;;;6283739;22;19956;-87
2022/02/13 02:32:10;;;;;;;;;;;2.90;91.50;;;;;;6284526;22;19945;-86
2022/02/13 02:34:37;;;;;;;;;;;2.90;91.80;;;;;;6284604;22;20327;-88
2022/02/13 02:37:06;;;;;;;;;;;2.90;91.50;;;;;;6284448;22;19906;-87
2022/02/13 02:39:32;;;;;;;;;;;2.90;91.60;;;;;;6284107;22;19972;-88
2022/02/13 02:41:58;;;;;;;;;;;2.90;91.60;;;;;;6284186;22;19907;-87
2022/02/13 02:44:23;;;;;;;;;;;2.90;91.60;;;;;;6284219;22;19956;-88
2022/02/13 02:46:53;;;;;;;;;;;2.90;91.70;;;;;;6283369;22;19915;-88
2022/02/13 02:49:21;;;;;;;;;;;2.90;91.70;;;;;;6283780;22;19910;-89
2022/02/13 02:51:52;;;;;;;;;;;2.90;91.70;;;;;;6283792;22;19903;-89
2022/02/13 02:54:18;;;;;;;;;;;2.90;91.60;;;;;;6258542;22;19907;-88
2022/02/13 02:56:46;;;;;;;;;;;2.90;91.60;;;;;;6284819;22;19910;-89
2022/02/13 02:59:11;;;;;;;;;;;2.90;91.60;;;;;;6311203;22;19903;-89
2022/02/13 03:01:37;;;;;;;;;;;2.90;91.60;;;;;;6311721;22;19903;-88
2022/02/13 03:04:07;;;;;;;;;;;2.90;91.60;;;;;;6284214;22;20265;-89
2022/02/13 03:06:36;;;;;;;;;;;2.90;91.60;;;;;;6284337;22;19903;-88
2022/02/13 03:09:09;;;;;;;;;;;2.90;91.60;;;;;;6285381;22;19914;-88
2022/02/13 03:11:38;;;;;;;;;;;2.90;91.60;;;;;;6301807;22;19891;-90
2022/02/13 03:14:03;;;;;;;;;;;2.80;91.50;;;;;;6336184;22;19891;-88
2022/02/13 03:16:29;;;;;;;;;;;2.90;91.60;;;;;;6305352;22;19893;-88
2022/02/13 03:19:05;;;;;;;;;;;;;;;;;;;;;
2022/02/13 03:21:33;;;;;;;;;;;2.90;91.60;;;;;;6311386;22;19987;-88
2022/02/13 03:24:09;;;;;;;;;;;2.90;91.60;;;;;;6284035;22;19976;-87
2022/02/13 03:26:35;;;;;;;;;;;2.80;91.50;;;;;;6284105;22;19948;-88
2022/02/13 03:29:01;;;;;;;;;;;2.90;91.60;;;;;;6284214;22;19903;-85
2022/02/13 03:31:26;;;;;;;;;;;2.80;91.50;;;;;;6283829;22;19929;-88
2022/02/13 03:33:59;;;;;;;;;;;2.80;91.60;;;;;;6283662;22;19907;-88
2022/02/13 03:36:28;;;;;;;;;;;2.80;91.60;;;;;;6284171;22;19903;-87
2022/02/13 03:38:53;;;;;;;;;;;2.80;91.70;;;;;;6283401;22;19910;-88
2022/02/13 03:41:21;;;;;;;;;;;2.80;91.70;;;;;;6311176;22;19903;-88
2022/02/13 03:43:47;;;;;;;;;;;2.80;91.70;;;;;;6283635;22;19911;-88
2022/02/13 03:46:15;;;;;;;;;;;2.80;91.70;;;;;;6285399;22;19915;-88
2022/02/13 03:48:43;;;;;;;;;;;2.80;91.70;;;;;;6285701;22;19903;-86
2022/02/13 03:51:11;;;;;;;;;;;2.80;91.80;;;;;;6285547;22;20305;-86
2022/02/13 03:53:41;;;;;;;;;;;2.80;91.80;;;;;;6285940;22;20324;-88
2022/02/13 03:56:09;;;;;;;;;;;2.70;91.80;;;;;;6285581;22;19903;-88
2022/02/13 03:58:37;;;;;;;;;;;2.70;91.80;;;;;;6285617;22;19910;-88
2022/02/13 04:01:04;;;;;;;;;;;2.80;91.80;;;;;;6285256;22;19925;-88
2022/02/13 04:03:34;;;;;;;;;;;2.80;91.80;;;;;;6285643;22;19911;-88
2022/02/13 04:06:03;;;;;;;;;;;2.90;91.70;;;;;;6285866;22;19930;-88
2022/02/13 04:08:28;;;;;;;;;;;2.80;91.70;;;;;;6285851;22;19910;-87
2022/02/13 04:10:56;;;;;;;;;;;2.90;91.70;;;;;;6285567;22;19903;-89
2022/02/13 04:13:22;;;;;;;;;;;2.80;91.70;;;;;;6260066;22;19910;-88
2022/02/13 04:15:56;;;;;;;;;;;2.80;91.60;;;;;;6285127;22;19910;-88
2022/02/13 04:18:24;;;;;;;;;;;2.80;91.60;;;;;;6285200;22;19914;-90
2022/02/13 04:20:50;;;;;;;;;;;2.90;91.70;;;;;;6259961;22;20233;-89
2022/02/13 04:23:16;;;;;;;;;;;2.90;91.60;;;;;;6285147;22;19964;-89
2022/02/13 04:25:41;;;;;;;;;;;2.90;91.60;;;;;;6285265;22;19958;-88
2022/02/13 04:28:07;;;;;;;;;;;2.90;91.60;;;;;;6286042;22;19903;-89
2022/02/13 04:30:35;;;;;;;;;;;2.90;91.60;;;;;;6312908;22;19958;-89
2022/02/13 04:33:03;;;;;;;;;;;2.90;91.60;;;;;;6286085;22;19925;-89
2022/02/13 04:35:28;;;;;;;;;;;2.90;91.60;;;;;;6332249;22;19955;-89
2022/02/13 04:37:59;;;;;;;;;;;2.90;91.60;;;;;;6311768;22;19891;-90
2022/02/13 04:40:24;;;;;;;;;;;2.90;91.60;;;;;;6311521;22;19906;-86
2022/02/13 04:42:53;;;;;;;;;;;2.90;91.60;;;;;;6300847;22;21845;-88
2022/02/13 04:45:19;;;;;;;;;;;2.90;91.60;;;;;;6285830;22;19903;-89
2022/02/13 04:47:48;;;;;;;;;;;2.90;91.60;;;;;;6285692;22;20375;-87
2022/02/13 04:50:21;;;;;;;;;;;2.90;91.70;;;;;;6312703;22;19929;-89
2022/02/13 04:52:49;;;;;;;;;;;2.90;91.70;;;;;;6261433;22;19907;-89
2022/02/13 04:55:15;;;;;;;;;;;2.90;91.70;;;;;;6301023;22;19903;-88
2022/02/13 04:57:41;;;;;;;;;;;2.90;91.70;;;;;;6308598;22;19887;-90
2022/02/13 05:00:06;;;;;;;;;;;2.90;91.70;;;;;;6305587;22;19910;-88
2022/02/13 05:02:32;;;;;;;;;;;2.90;91.70;;;;;;6297686;22;19934;-89
2022/02/13 05:04:58;;;;;;;;;;;2.90;91.70;;;;;;6286168;22;19903;-87
2022/02/13 05:07:23;;;;;;;;;;;2.90;91.70;;;;;;6288255;22;19903;-89
2022/02/13 05:09:52;;;;;;;;;;;2.90;91.70;;;;;;6259446;22;19907;-88
2022/02/13 05:12:17;;;;;;;;;;;2.80;91.70;;;;;;6311922;22;19942;-88
2022/02/13 05:14:43;;;;;;;;;;;2.80;91.70;;;;;;6286133;22;19918;-87
2022/02/13 05:17:11;;;;;;;;;;;2.80;91.70;;;;;;6285072;22;19972;-88
2022/02/13 05:19:37;;;;;;;;;;;2.80;91.70;;;;;;6286934;22;20032;-88
2022/02/13 05:22:10;;;;;;;;;;;2.80;91.70;;;;;;6286738;22;19907;-86
2022/02/13 05:24:38;;;;;;;;;;;2.80;91.70;;;;;;6285159;22;19994;-88
2022/02/13 05:27:11;;;;;;;;;;;2.80;91.70;;;;;;6259350;22;20343;-90
2022/02/13 05:29:37;;;;;;;;;;;2.80;91.70;;;;;;6284567;22;19934;-88
2022/02/13 05:32:09;;;;;;;;;;;2.80;91.70;;;;;;6284719;22;19914;-89
2022/02/13 05:34:35;;;;;;;;;;;2.80;91.70;;;;;;6284840;22;20305;-88
2022/02/13 05:37:02;;;;;;;;;;;2.80;91.70;;;;;;6284748;22;19903;-88
2022/02/13 05:39:28;;;;;;;;;;;2.80;91.70;;;;;;6311423;22;20005;-88
2022/02/13 05:41:54;;;;;;;;;;;2.80;91.80;;;;;;6284619;22;19902;-88
2022/02/13 05:44:19;;;;;;;;;;;2.70;91.80;;;;;;6284797;22;20309;-88
2022/02/13 05:46:47;;;;;;;;;;;2.70;91.80;;;;;;6284629;22;20317;-88
2022/02/13 05:49:13;;;;;;;;;;;2.70;91.80;;;;;;6259487;22;19907;-88
2022/02/13 05:51:39;;;;;;;;;;;2.70;91.90;;;;;;6285116;22;19918;-87
2022/02/13 05:54:12;;;;;;;;;;;2.70;91.90;;;;;;6286932;22;19989;-88
2022/02/13 05:56:47;;;;;;;;;;;;;;;;;;;;;
2022/02/13 05:59:13;;;;;;;;;;;2.70;91.90;;;;;;6337477;22;19906;-87
2022/02/13 06:01:41;;;;;;;;;;;2.70;91.90;;;;;;6310888;22;19891;-89
2022/02/13 06:04:10;;;;;;;;;;;2.70;92.00;;;;;;6333196;22;19919;-88
2022/02/13 06:06:38;;;;;;;;;;;2.70;91.90;;;;;;6293395;22;19996;-88
2022/02/13 06:09:03;;;;;;;;;;;2.70;92.00;;;;;;6285602;22;19926;-89
2022/02/13 06:11:29;;;;;;;;;;;2.60;92.00;;;;;;6283712;22;19953;-88
2022/02/13 06:13:54;;;;;;;;;;;2.60;91.90;;;;;;6285222;22;19957;-88
2022/02/13 06:16:38;;;;;;;;;;;2.60;91.90;;;;;;6285086;22;19910;-88
2022/02/13 06:19:04;;;;;;;;;;;2.60;92.00;;;;;;6284506;22;19903;-89
2022/02/13 06:21:30;;;;;;;;;;;2.60;92.00;;;;;;6283567;22;19910;-88
2022/02/13 06:23:57;;;;;;;;;;;2.60;92.00;;;;;;6284185;22;19910;-87
2022/02/13 06:26:26;;;;;;;;;;;2.60;92.10;;;;;;6283911;22;19910;-88
2022/02/13 06:28:55;;;;;;;;;;;2.60;92.10;;;;;;6284539;22;19986;-89
2022/02/13 06:31:23;;;;;;;;;;;2.60;92.10;;;;;;6284290;22;19907;-88
2022/02/13 06:34:07;;;;;;;;;;;2.60;92.10;;;;;;6283931;22;19902;-88
2022/02/13 06:36:35;;;;;;;;;;;2.70;92.10;;;;;;6284256;22;19907;-88
2022/02/13 06:39:01;;;;;;;;;;;2.70;92.10;;;;;;6258424;22;19956;-87
2022/02/13 06:41:26;;;;;;;;;;;2.70;92.10;;;;;;6284072;22;19902;-88
2022/02/13 06:43:52;;;;;;;;;;;2.70;92.10;;;;;;6258039;22;19918;-88
2022/02/13 06:46:18;;;;;;;;;;;2.70;92.00;;;;;;6283306;22;19923;-88
2022/02/13 06:48:46;;;;;;;;;;;2.70;92.10;;;;;;6284251;22;19907;-87
2022/02/13 06:51:20;;;;;;;;;;;2.70;92.10;;;;;;6311141;22;19911;-88
2022/02/13 06:53:46;;;;;;;;;;;2.70;92.10;;;;;;6283692;22;19903;-88
2022/02/13 06:56:17;;;;;;;;;;;2.70;92.10;;;;;;6283426;22;19945;-89
2022/02/13 06:58:45;;;;;;;;;;;2.70;92.20;;;;;;6283853;22;19985;-87
2022/02/13 07:01:10;;;;;;;;;;;2.70;92.20;;;;;;6284187;22;19926;-88
2022/02/13 07:03:38;;;;;;;;;;;2.80;92.20;;;;;;6258277;22;19929;-89
2022/02/13 07:06:09;;;;;;;;;;;2.70;92.10;;;;;;6283877;22;19957;-89
2022/02/13 07:08:34;;;;;;;;;;;2.80;92.10;;;;;;6284607;22;19957;-90
2022/02/13 07:11:02;;;;;;;;;;;2.80;92.10;;;;;;6283979;22;19903;-89
2022/02/13 07:13:31;;;;;;;;;;;2.80;92.10;;;;;;6284164;22;19977;-89
2022/02/13 07:15:58;;;;;;;;;;;2.80;92.10;;;;;;6284515;22;19903;-88
2022/02/13 07:18:24;;;;;;;;;;;2.90;92.10;;;;;;6284790;22;19909;-88
2022/02/13 07:20:50;;;;;;;;;;;2.80;92.10;;;;;;6322567;22;19911;-88
2022/02/13 07:23:18;;;;;;;;;;;2.90;92.10;;;;;;6336525;22;19903;-88
2022/02/13 07:25:44;;;;;;;;;;;2.80;92.10;;;;;;6310347;22;19934;-86
2022/02/13 07:30:54;;;;;;;;;;;2.90;92.10;;;;;;6314372;22;19910;-89
2022/02/13 07:33:20;;;;;;;;;;;2.90;92.20;;;;;;6286686;22;19903;-88
2022/02/13 07:35:48;;;;;;;;;;;2.90;92.10;;;;;;6300182;22;19923;-87
2022/02/13 07:38:13;;;;;;;;;;;3.00;92.20;;;;;;6308719;22;19926;-85
2022/02/13 07:40:39;;;;;;;;;;;3.00;92.20;;;;;;6308984;22;19895;-88
2022/02/13 07:43:05;;;;;;;;;;;3.00;92.20;;;;;;6274375;22;19935;-86
2022/02/13 07:45:33;;;;;;;;;;;3.10;92.20;;;;;;6313574;22;19966;-89
2022/02/13 07:47:58;;;;;;;;;;;3.10;92.20;;;;;;6283777;22;19919;-89
2022/02/13 07:50:31;;;;;;;;;;;3.10;92.20;;;;;;6258430;22;20284;-88
2022/02/13 07:53:00;;;;;;;;;;;3.10;92.10;;;;;;6284516;22;19948;-88
2022/02/13 07:55:26;;;;;;;;;;;3.20;92.10;;;;;;6283567;22;19956;-88
2022/02/13 07:57:54;;;;;;;;;;;3.20;92.10;;;;;;6283325;22;19903;-90
2022/02/13 08:00:20;;;;;;;;;;;3.30;92.20;;;;;;6283377;22;20340;-88
2022/02/13 08:02:57;;;;;;;;;;;;;;;;;;;;;
2022/02/13 08:05:28;;;;;;;;;;;3.30;92.00;;;;;;6309973;22;19973;-89
2022/02/13 08:07:56;;;;;;;;;;;3.40;92.10;;;;;;6283243;22;20324;-89
2022/02/13 08:10:23;;;;;;;;;;;3.40;92.00;;;;;;6310012;22;20348;-88
2022/02/13 08:13:07;;;;;;;;;;;;;;;;;;;;;
2022/02/13 08:15:43;;;;;;;;;;;;;;;;;;;;;
2022/02/13 08:18:15;;;;;;;;;;;3.50;92.00;;;;;;6310611;22;19947;-89
2022/02/13 08:20:53;;;;;;;;;;;;;;;;;;;;;
2022/02/13 08:23:26;;;;;;;;;;;3.70;91.90;;;;;;6285429;22;19997;-90
2022/02/13 08:25:56;;;;;;;;;;;3.60;91.90;;;;;;6283476;22;19907;-88
2022/02/13 08:28:22;;;;;;;;;;;3.70;91.90;;;;;;6283164;22;19918;-90
2022/02/13 08:30:48;;;;;;;;;;;3.80;91.90;;;;;;6284725;22;19902;-90
2022/02/13 08:33:19;;;;;;;;;;;3.80;91.90;;;;;;6286276;22;19910;-90
2022/02/13 08:35:46;;;;;;;;;;;3.80;91.90;;;;;;6286622;22;19914;-88
2022/02/13 08:38:22;;;;;;;;;;;3.90;91.90;;;;;;6285881;22;19914;-91
2022/02/13 08:40:48;;;;;;;;;;;3.90;91.90;;;;;;6262351;22;19907;-88
2022/02/13 08:46:16;;;;;;;;;;;4.00;91.90;;;;;;6242202;22;19896;-89
2022/02/13 08:48:43;;;;;;;;;;;4.00;91.80;;;;;;6248074;23;19951;-90
2022/02/13 08:51:12;;;;;;;;;;;4.10;91.90;;;;;;6275150;22;19896;-92
2022/02/13 08:53:37;;;;;;;;;;;4.10;91.80;;;;;;6236401;23;19904;-89
2022/02/13 08:56:13;;;;;;;;;;;4.20;91.80;;;;;;6251119;23;19925;-88
2022/02/13 09:02:06;;;;;;;;;;;4.30;91.80;;;;;;6232230;23;19903;-93
2022/02/13 09:04:57;;;;;;;;;;;4.30;91.70;;;;;;6224955;23;19926;-94
2022/02/13 09:07:36;;;;;;;;;;;4.30;91.70;;;;;;6248821;23;19991;-92
2022/02/13 09:10:25;;;;;;;;;;;4.40;91.60;;;;;;6224429;23;19935;-91
2022/02/13 09:13:05;;;;;;;;;;;4.40;91.70;;;;;;6249350;23;19904;-91
2022/02/13 09:15:42;;;;;;;;;;;4.50;91.70;;;;;;6220919;23;19908;-89
2022/02/13 09:18:54;;;;;;;;;;;4.50;91.60;;;;;;6223344;23;19904;-91
2022/02/13 09:21:39;;;;;;;;;;;;;;;;;;;;;
2022/02/13 09:27:27;;;;;;;;;;;;;;;;;;;;;
2022/02/13 09:30:21;;;;;;;;;;;;;;;;;;;;;
2022/02/13 09:32:52;;;;;;;;;;;4.90;91.60;;;;;;6249615;23;19945;-89
2022/02/13 09:35:45;;;;;;;;;;;5.00;91.60;;;;;;6223080;23;20298;-90
2022/02/13 09:38:53;;;;;;;;;;;5.10;91.60;;;;;;6238010;23;20387;-91
2022/02/13 09:41:19;;;;;;;;;;;5.10;91.50;;;;;;6249028;23;20226;-89
2022/02/13 09:43:48;;;;;;;;;;;5.20;91.40;;;;;;6222928;23;19911;-89
2022/02/13 09:46:16;;;;;;;;;;;5.20;91.40;;;;;;6221529;22;19911;-89
2022/02/13 09:48:42;;;;;;;;;;;5.30;91.30;;;;;;6253480;22;19915;-91
2022/02/13 09:51:30;;;;;;;;;;;5.30;91.20;;;;;;6254199;22;19910;-91
2022/02/13 09:54:06;;;;;;;;;;;5.30;91.20;;;;;;6280137;22;19904;-91
2022/02/13 09:56:43;;;;;;;;;;;5.40;91.10;;;;;;6253665;22;19907;-89
2022/02/13 09:59:38;;;;;;;;;;;5.40;91.00;;;;;;6253691;22;19903;-89
2022/02/13 10:02:51;;;;;;;;;;;;;;;;;;;;;
2022/02/13 10:05:22;;;;;;;;;;;5.40;90.80;;;;;;6278116;22;20382;-89
2022/02/13 10:08:19;;;;;;;;;;;5.50;90.90;;;;;;6253726;22;19935;-89
2022/02/13 10:20:24;;;;;;;;;;;5.80;90.90;;;;;;6272247;22;19903;-91
2022/02/13 10:23:12;;;;;;;;;;;5.80;90.90;;;;;;6302969;22;19911;-90
2022/02/13 10:26:07;;;;;;;;;;;5.90;90.90;;;;;;6303079;22;19949;-90
2022/02/13 10:28:51;;;;;;;;;;;5.90;90.90;;;;;;6275948;22;19911;-93
2022/02/13 10:31:26;;;;;;;;;;;6.00;90.90;;;;;;6254493;22;19903;-90
2022/02/13 10:40:00;;;;;;;;;;;6.20;90.80;;;;;;6254593;22;19930;-91
2022/02/13 10:42:51;;;;;;;;;;;6.20;90.80;;;;;;6254121;22;19904;-91
2022/02/13 10:48:48;;;;;;;;;;;6.30;90.80;;;;;;6279910;22;19995;-93
2022/02/13 10:51:34;;;;;;;;;;;6.40;90.80;;;;;;6278200;22;19934;-92
2022/02/13 10:54:09;;;;;;;;;;;6.40;90.80;;;;;;6279619;22;19907;-90
2022/02/13 10:56:35;;;;;;;;;;;6.50;90.80;;;;;;6252899;22;20206;-87
2022/02/13 10:59:04;;;;;;;;;;;6.60;90.60;;;;;;6252704;22;19911;-88
2022/02/13 11:01:31;;;;;;;;;;;6.60;90.60;;;;;;6253164;22;19909;-90
2022/02/13 11:04:07;;;;;;;;;;;6.70;90.60;;;;;;6253225;22;19911;-91
2022/02/13 11:07:09;;;;;;;;;;;;;;;;;;;;;
2022/02/13 11:09:51;;;;;;;;;;;6.80;90.40;;;;;;6279948;22;19990;-90
2022/02/13 11:12:23;;;;;;;;;;;6.80;90.40;;;;;;6253464;22;19989;-91
2022/02/13 11:15:08;;;;;;;;;;;6.90;90.50;;;;;;6252675;22;19903;-95
2022/02/13 11:17:41;;;;;;;;;;;7.00;90.50;;;;;;6251347;22;19903;-90
2022/02/13 11:20:07;;;;;;;;;;;7.00;90.20;;;;;;6252110;22;19904;-88
2022/02/13 11:22:36;;;;;;;;;;;7.10;90.20;;;;;;6252878;22;19908;-91
2022/02/13 11:25:07;;;;;;;;;;;7.20;90.20;;;;;;6252452;22;19997;-89
2022/02/13 11:27:53;;;;;;;;;;;7.20;90.00;;;;;;6253315;22;19977;-90
2022/02/13 11:30:40;;;;;;;;;;;7.30;90.00;;;;;;6278351;22;19904;-89
2022/02/13 11:36:30;;;;;;;;;;;7.50;90.00;;;;;;6279878;22;20277;-89
2022/02/13 11:39:08;;;;;;;;;;;;;;;;;;;;;
2022/02/13 11:41:59;;;;;;;;;;;;;;;;;;;;;
2022/02/13 11:44:34;;;;;;;;;;;7.60;89.90;;;;;;6305587;22;19954;-91
2022/02/13 11:47:14;;;;;;;;;;;;;;;;;;;;;
2022/02/13 11:53:09;;;;;;;;;;;7.80;90.20;;;;;;6215002;22;19904;-92
2022/02/13 11:58:43;;;;;;;;;;;7.90;90.20;;;;;;6280096;22;19911;-91
2022/02/13 12:01:38;;;;;;;;;;;8.00;90.20;;;;;;6253487;22;19904;-91
2022/02/13 12:04:36;;;;;;;;;;;;;;;;;;;;;
2022/02/13 12:07:10;;;;;;;;;;;8.10;90.30;;;;;;6260706;22;19994;-89
2022/02/13 12:12:57;;;;;;;;;;;8.20;90.40;;;;;;6265310;22;19914;-90
2022/02/13 12:15:33;;;;;;;;;;;8.30;90.30;;;;;;6255344;22;19907;-91
2022/02/13 12:18:28;;;;;;;;;;;8.40;90.30;;;;;;6281274;22;19939;-92
2022/02/13 12:21:09;;;;;;;;;;;8.50;90.40;;;;;;6228372;22;19925;-91
2022/02/13 12:23:38;;;;;;;;;;;8.50;90.40;;;;;;6254196;22;19911;-92
2022/02/13 12:26:04;;;;;;;;;;;8.60;90.40;;;;;;6254236;22;19911;-90
2022/02/13 12:29:05;;;;;;;;;;;8.60;90.40;;;;;;6253816;22;19986;-92
2022/02/13 12:31:39;;;;;;;;;;;8.70;90.10;;;;;;6279877;22;20206;-93
2022/02/13 12:40:29;;;;;;;;;;;;;;;;;;;;;
2022/02/13 12:43:26;;;;;;;;;;;;;;;;;;;;;
2022/02/13 12:45:55;;;;;;;;;;;9.00;90.30;;;;;;6282003;22;19986;-91
2022/02/13 12:48:34;;;;;;;;;;;9.10;90.30;;;;;;6253405;22;19941;-93
2022/02/13 12:51:23;;;;;;;;;;;9.10;90.30;;;;;;6255604;22;19907;-91
2022/02/13 12:54:08;;;;;;;;;;;;;;;;;;;;;
2022/02/13 12:56:41;;;;;;;;;;;9.10;90.20;;;;;;6281636;22;19974;-92
2022/02/13 12:59:07;;;;;;;;;;;9.20;90.20;;;;;;6255442;22;19914;-91
2022/02/13 13:04:55;;;;;;;;;;;9.30;90.20;;;;;;6269852;22;19911;-92
2022/02/13 13:07:36;;;;;;;;;;;9.30;90.10;;;;;;6282472;22;19986;-91
2022/02/13 13:10:32;;;;;;;;;;;;;;;;;;;;;
2022/02/13 13:13:39;;;;;;;;;;;;;;;;;;;;;
2022/02/13 13:16:26;;;;;;;;;;;9.40;89.50;;;;;;6274561;22;19906;-91
2022/02/13 13:21:53;;;;;;;;;;;9.40;89.30;;;;;;6273227;22;19904;-92
2022/02/13 13:24:42;;;;;;;;;;;9.40;88.70;;;;;;6252839;22;19899;-93
2022/02/13 13:30:16;;;;;;;;;;;9.50;88.00;;;;;;6269107;22;19904;-91
2022/02/13 13:32:45;;;;;;;;;;;9.50;87.10;;;;;;6254360;22;19988;-93
2022/02/13 13:35:28;;;;;;;;;;;9.50;87.20;;;;;;6253859;22;19907;-91
2022/02/13 13:38:26;;;;;;;;;;;;;;;;;;;;;
2022/02/13 13:41:27;;;;;;;;;;;;;;;;;;;;;
2022/02/13 13:44:02;;;;;;;;;;;9.60;87.50;;;;;;6281250;22;20453;-91
2022/02/13 13:46:40;;;;;;;;;;;9.60;87.40;;;;;;6253745;22;19910;-91
2022/02/13 13:49:29;;;;;;;;;;;;;;;;;;;;;
2022/02/13 13:52:17;;;;;;;;;;;9.70;86.90;;;;;;6281019;22;19995;-92
2022/02/13 13:54:53;;;;;;;;;;;;;;;;;;;;;
2022/02/13 13:57:19;;;;;;;;;;;9.70;87.00;;;;;;6280912;22;19986;-90
2022/02/13 14:03:12;;;;;;;;;;;9.70;87.30;;;;;;6237920;22;19903;-91
2022/02/13 14:08:46;;;;;;;;;;;9.80;87.30;;;;;;6248046;23;19915;-92
2022/02/13 14:11:25;;;;;;;;;;;9.80;87.30;;;;;;6253576;22;20206;-91
2022/02/13 14:14:03;;;;;;;;;;;9.80;87.30;;;;;;6255475;22;19903;-91
2022/02/13 14:16:36;;;;;;;;;;;9.80;87.10;;;;;;6256448;22;19951;-91
2022/02/13 14:19:05;;;;;;;;;;;9.80;87.00;;;;;;6261197;22;19903;-91
2022/02/13 14:21:31;;;;;;;;;;;9.80;86.90;;;;;;6260222;22;20336;-91
2022/02/13 14:27:11;;;;;;;;;;;9.80;87.00;;;;;;6262163;22;19908;-90
2022/02/13 14:29:42;;;;;;;;;;;9.80;86.90;;;;;;6284163;22;19947;-93
2022/02/13 14:35:02;;;;;;;;;;;9.80;87.00;;;;;;6248013;22;20306;-91
2022/02/13 14:40:48;;;;;;;;;;;9.80;87.10;;;;;;6263639;22;19970;-91
2022/02/13 14:43:37;;;;;;;;;;;;;;;;;;;;;
2022/02/13 14:46:33;;;;;;;;;;;;;;;;;;;;;
2022/02/13 14:49:21;;;;;;;;;;;9.90;87.30;;;;;;6282122;22;20386;-92
2022/02/13 14:51:54;;;;;;;;;;;9.90;87.40;;;;;;6256193;22;19926;-93
2022/02/13 14:54:34;;;;;;;;;;;9.90;87.50;;;;;;6223736;22;19903;-90
2022/02/13 14:57:10;;;;;;;;;;;;;;;;;;;;;
2022/02/13 14:59:46;;;;;;;;;;;9.90;87.50;;;;;;6332343;22;19918;-90
2022/02/13 15:02:15;;;;;;;;;;;10.00;87.70;;;;;;6284394;22;20305;-91
2022/02/13 15:04:43;;;;;;;;;;;10.00;87.80;;;;;;6283492;22;19918;-91
2022/02/13 15:07:12;;;;;;;;;;;10.00;87.80;;;;;;6284045;22;19903;-90
2022/02/13 15:09:45;;;;;;;;;;;10.00;87.80;;;;;;6283770;22;19903;-91
2022/02/13 15:12:14;;;;;;;;;;;10.10;87.70;;;;;;6258890;22;19907;-91
2022/02/13 15:14:46;;;;;;;;;;;10.00;87.60;;;;;;6284209;22;19914;-90
2022/02/13 15:17:39;;;;;;;;;;;10.00;87.60;;;;;;6288090;22;19915;-91
2022/02/13 15:20:14;;;;;;;;;;;10.00;87.70;;;;;;6316254;22;19898;-90
2022/02/13 15:22:45;;;;;;;;;;;10.00;87.80;;;;;;6290707;22;19926;-89
2022/02/13 15:25:18;;;;;;;;;;;10.00;87.80;;;;;;6286800;22;20220;-90
2022/02/13 15:27:44;;;;;;;;;;;9.90;87.90;;;;;;6286867;22;19910;-89
2022/02/13 15:30:18;;;;;;;;;;;10.00;88.10;;;;;;6290103;22;19907;-89
2022/02/13 15:32:43;;;;;;;;;;;10.00;88.20;;;;;;6283373;22;19903;-89
2022/02/13 15:35:09;;;;;;;;;;;10.00;88.40;;;;;;6282686;22;20375;-89
2022/02/13 15:37:35;;;;;;;;;;;9.90;88.40;;;;;;6283929;22;20305;-89
2022/02/13 15:40:08;;;;;;;;;;;9.90;88.50;;;;;;6284464;22;19903;-89
2022/02/13 15:42:40;;;;;;;;;;;9.90;88.50;;;;;;6285911;22;19903;-91
2022/02/13 15:48:29;;;;;;;;;;;9.90;88.70;;;;;;6290889;22;19907;-91
2022/02/13 15:54:13;;;;;;;;;;;9.90;88.80;;;;;;6290223;22;19915;-91
2022/02/13 15:57:05;;;;;;;;;;;9.80;88.80;;;;;;6282709;22;19904;-91
2022/02/13 15:59:36;;;;;;;;;;;9.80;88.90;;;;;;6281061;22;19910;-90
2022/02/13 16:02:53;;;;;;;;;;;;;;;;;;;;;
2022/02/13 16:08:34;;;;;;;;;;;9.70;89.10;;;;;;6237645;22;20002;-91
2022/02/13 16:14:26;;;;;;;;;;;9.70;89.30;;;;;;6281287;22;19911;-90
2022/02/13 16:20:33;;;;;;;;;;;9.70;89.40;;;;;;6207063;23;19912;-92
2022/02/13 16:26:36;;;;;;;;;;;;;;;;;;;;;
2022/02/13 16:29:22;;;;;;;;;;;9.60;89.70;;;;;;6214485;23;19897;-94
2022/02/13 16:32:18;;;;;;;;;;;9.60;89.80;;;;;;6213072;23;19898;-91
2022/02/13 16:35:06;;;;;;;;;;;9.50;89.80;;;;;;6208639;23;19908;-90
2022/02/13 16:40:56;;;;;;;;;;;9.50;89.90;;;;;;6134162;23;19905;-91
2022/02/13 16:44:08;;;;;;;;;;;9.50;90.00;;;;;;6183818;23;19919;-91
2022/02/13 16:46:52;;;;;;;;;;;;;;;;;;;;;
2022/02/13 16:52:35;;;;;;;;;;;9.50;90.00;;;;;;6098629;23;19909;-92
2022/02/13 16:55:23;;;;;;;;;;;9.40;90.10;;;;;;6301358;22;19915;-93
2022/02/13 16:58:15;;;;;;;;;;;9.40;90.20;;;;;;6310429;22;20155;-89
2022/02/13 17:00:43;;;;;;;;;;;9.30;90.20;;;;;;6310986;22;20333;-90
2022/02/13 17:03:44;;;;;;;;;;;9.40;90.20;;;;;;6310657;22;19903;-91
2022/02/13 17:06:40;;;;;;;;;;;;;;;;;;;;;
2022/02/13 17:09:30;;;;;;;;;;;;;;;;;;;;;
2022/02/13 17:12:09;;;;;;;;;;;;;;;;;;;;;
2022/02/13 17:17:59;;;;;;;;;;;;;;;;;;;;;
2022/02/13 17:23:57;;;;;;;;;;;9.30;90.10;;;;;;6312041;22;19911;-89
2022/02/13 17:26:59;;;;;;;;;;;;;;;;;;;;;